Time,TemperatureF,DewpointF,PressureIn,WindDirection,WindDirectionDegrees,WindSpeedMPH,WindSpeedGustMPH,Humidity,HourlyPrecipIn,Conditions,Clouds,dailyrainin,SoftwareType,DateUTC
2013-01-04 00:03:00,16.2,11.3,30.34,North,0,0.0,0.0,81,0.00,,,0.00,WUHU216HW,2013-01-04 06:03:00,
2013-01-04 00:08:00,16.2,11.3,30.34,North,0,0.0,0.0,81,0.00,,,0.00,WUHU216HW,2013-01-04 06:08:00,
2013-01-04 00:13:00,16.2,11.3,30.34,North,0,0.0,0.0,81,0.00,,,0.00,WUHU216HW,2013-01-04 06:13:00,
2013-01-04 00:18:00,16.2,11.3,30.34,North,0,0.0,0.0,81,0.00,,,0.00,WUHU216HW,2013-01-04 06:18:00,
2013-01-04 00:23:00,16.2,11.3,30.33,North,0,0.0,0.0,81,0.00,,,0.00,WUHU216HW,2013-01-04 06:23:00,
2013-01-04 00:28:00,16.4,11.5,30.33,North,0,0.0,0.0,81,0.00,,,0.00,WUHU216HW,2013-01-04 06:28:00,
2013-01-04 00:33:00,16.4,11.5,30.34,North,0,0.0,0.0,81,0.00,,,0.00,WUHU216HW,2013-01-04 06:33:00,
2013-01-04 00:38:00,16.6,11.7,30.33,SW,225,6.5,6.5,81,0.00,,,0.00,WUHU216HW,2013-01-04 06:38:00,
2013-01-04 00:43:00,16.7,11.9,30.32,North,0,0.0,6.5,81,0.00,,,0.00,WUHU216HW,2013-01-04 06:43:00,
2013-01-04 00:48:00,16.9,12.1,30.32,North,0,0.0,6.5,81,0.00,,,0.00,WUHU216HW,2013-01-04 06:48:00,
2013-01-04 00:53:00,16.9,12.1,30.32,North,0,0.0,0.0,81,0.00,,,0.00,WUHU216HW,2013-01-04 06:53:00,
2013-01-04 00:58:00,17.1,12.3,30.31,North,0,0.0,0.0,81,0.00,,,0.00,WUHU216HW,2013-01-04 06:58:00,
2013-01-04 01:03:00,17.3,12.3,30.31,North,0,0.0,0.0,81,0.00,,,0.00,WUHU216HW,2013-01-04 07:03:00,
2013-01-04 01:08:00,17.3,12.3,30.30,North,0,0.0,0.0,81,0.00,,,0.00,WUHU216HW,2013-01-04 07:08:00,
2013-01-04 01:13:00,17.3,12.3,30.30,North,0,0.0,0.0,81,0.00,,,0.00,WUHU216HW,2013-01-04 07:13:00,
2013-01-04 01:18:00,17.3,12.3,30.30,North,0,0.0,0.0,81,0.00,,,0.00,WUHU216HW,2013-01-04 07:18:00,
2013-01-04 01:23:00,17.5,12.5,30.30,North,0,0.0,0.0,81,0.00,,,0.00,WUHU216HW,2013-01-04 07:23:00,
2013-01-04 01:28:00,17.5,12.5,30.29,North,0,0.0,0.0,81,0.00,,,0.00,WUHU216HW,2013-01-04 07:28:00,
2013-01-04 01:33:00,17.5,12.5,30.29,North,0,0.0,0.0,81,0.00,,,0.00,WUHU216HW,2013-01-04 07:33:00,
2013-01-04 01:38:00,17.6,12.7,30.29,North,0,0.0,0.0,81,0.00,,,0.00,WUHU216HW,2013-01-04 07:38:00,
2013-01-04 01:43:00,17.6,12.7,30.29,North,0,0.0,0.0,81,0.00,,,0.00,WUHU216HW,2013-01-04 07:43:00,
2013-01-04 01:48:00,17.6,12.7,30.29,North,0,0.0,0.0,81,0.00,,,0.00,WUHU216HW,2013-01-04 07:48:00,
2013-01-04 01:53:00,17.6,12.7,30.29,North,0,0.0,0.0,81,0.00,,,0.00,WUHU216HW,2013-01-04 07:53:00,
2013-01-04 01:58:00,17.8,12.9,30.30,North,0,0.0,0.0,81,0.00,,,0.00,WUHU216HW,2013-01-04 07:58:00,
2013-01-04 02:03:00,17.8,12.9,30.31,North,0,0.0,0.0,81,0.00,,,0.00,WUHU216HW,2013-01-04 08:03:00,
2013-01-04 02:08:00,18.0,13.1,30.30,North,0,0.0,0.0,81,0.00,,,0.00,WUHU216HW,2013-01-04 08:08:00,
2013-01-04 02:13:00,18.0,13.1,30.30,SSW,203,6.5,9.4,81,0.00,,,0.00,WUHU216HW,2013-01-04 08:13:00,
2013-01-04 02:18:00,18.0,12.8,30.30,South,180,4.5,9.4,80,0.00,,,0.00,WUHU216HW,2013-01-04 08:18:00,
2013-01-04 02:23:00,18.0,12.8,30.30,West,270,2.2,6.3,80,0.00,,,0.00,WUHU216HW,2013-01-04 08:23:00,
2013-01-04 02:28:00,17.8,12.6,30.31,SSW,203,4.9,5.4,80,0.00,,,0.00,WUHU216HW,2013-01-04 08:28:00,
2013-01-04 02:33:00,17.6,12.4,30.30,SW,225,2.2,4.9,80,0.00,,,0.00,WUHU216HW,2013-01-04 08:33:00,
2013-01-04 02:38:00,17.6,12.4,30.31,SW,225,2.5,4.9,80,0.00,,,0.00,WUHU216HW,2013-01-04 08:38:00,
2013-01-04 02:43:00,17.6,12.4,30.31,WSW,248,2.7,3.8,80,0.00,,,0.00,WUHU216HW,2013-01-04 08:43:00,
2013-01-04 02:48:00,17.6,12.4,30.30,WSW,248,3.6,4.5,80,0.00,,,0.00,WUHU216HW,2013-01-04 08:48:00,
2013-01-04 02:53:00,17.6,12.4,30.30,West,270,3.1,4.5,80,0.00,,,0.00,WUHU216HW,2013-01-04 08:53:00,
2013-01-04 02:58:00,17.5,12.2,30.29,SW,225,2.5,6.9,80,0.00,,,0.00,WUHU216HW,2013-01-04 08:58:00,
2013-01-04 03:03:00,17.6,12.4,30.29,SSW,203,1.6,6.9,80,0.00,,,0.00,WUHU216HW,2013-01-04 09:03:00,
2013-01-04 03:08:00,17.6,12.4,30.29,WNW,293,2.9,5.4,80,0.00,,,0.00,WUHU216HW,2013-01-04 09:08:00,
2013-01-04 03:13:00,17.6,12.4,30.29,West,270,3.4,5.4,80,0.00,,,0.00,WUHU216HW,2013-01-04 09:13:00,
2013-01-04 03:18:00,17.6,12.4,30.29,WSW,248,3.4,6.3,80,0.00,,,0.00,WUHU216HW,2013-01-04 09:18:00,
2013-01-04 03:23:00,17.6,12.4,30.29,WSW,248,5.8,6.3,80,0.00,,,0.00,WUHU216HW,2013-01-04 09:23:00,
2013-01-04 03:28:00,17.6,12.7,30.29,WSW,248,1.8,6.5,81,0.00,,,0.00,WUHU216HW,2013-01-04 09:28:00,
2013-01-04 03:33:00,17.8,12.9,30.29,West,270,4.0,6.5,81,0.00,,,0.00,WUHU216HW,2013-01-04 09:33:00,
2013-01-04 03:38:00,18.0,13.1,30.28,SW,225,5.6,6.3,81,0.00,,,0.00,WUHU216HW,2013-01-04 09:38:00,
2013-01-04 03:43:00,18.0,13.1,30.28,SSW,203,5.1,7.4,81,0.00,,,0.00,WUHU216HW,2013-01-04 09:43:00,
2013-01-04 03:48:00,18.2,13.2,30.27,WSW,248,10.3,10.3,81,0.00,,,0.00,WUHU216HW,2013-01-04 09:48:00,
2013-01-04 03:53:00,18.4,13.7,30.28,WNW,293,2.5,10.3,82,0.00,,,0.00,WUHU216HW,2013-01-04 09:53:00,
2013-01-04 03:58:00,18.4,13.7,30.27,SSW,203,2.9,5.8,82,0.00,,,0.00,WUHU216HW,2013-01-04 09:58:00,
2013-01-04 04:03:00,18.4,13.7,30.27,South,180,3.4,8.7,82,0.00,,,0.00,WUHU216HW,2013-01-04 10:03:00,
2013-01-04 04:08:00,18.5,13.6,30.27,South,180,6.9,8.7,81,0.00,,,0.00,WUHU216HW,2013-01-04 10:08:00,
2013-01-04 04:13:00,18.7,13.8,30.26,SSW,203,4.9,7.8,81,0.00,,,0.00,WUHU216HW,2013-01-04 10:13:00,
2013-01-04 04:18:00,18.7,13.8,30.26,SW,225,4.5,8.1,81,0.00,,,0.00,WUHU216HW,2013-01-04 10:18:00,
2013-01-04 04:23:00,18.9,14.0,30.26,SW,225,5.4,8.1,81,0.00,,,0.00,WUHU216HW,2013-01-04 10:23:00,
2013-01-04 04:28:00,19.1,14.1,30.26,WSW,248,5.1,8.5,81,0.00,,,0.00,WUHU216HW,2013-01-04 10:28:00,
2013-01-04 04:33:00,19.1,14.1,30.26,West,270,2.5,8.5,81,0.00,,,0.00,WUHU216HW,2013-01-04 10:33:00,
2013-01-04 04:38:00,19.1,14.1,30.26,South,180,1.8,7.8,81,0.00,,,0.00,WUHU216HW,2013-01-04 10:38:00,
2013-01-04 04:43:00,19.3,14.3,30.26,SW,225,4.9,6.7,81,0.00,,,0.00,WUHU216HW,2013-01-04 10:43:00,
2013-01-04 04:48:00,19.3,14.3,30.26,WSW,248,3.1,5.1,81,0.00,,,0.00,WUHU216HW,2013-01-04 10:48:00,
2013-01-04 04:53:00,19.4,14.5,30.26,South,180,5.4,6.9,81,0.00,,,0.00,WUHU216HW,2013-01-04 10:53:00,
2013-01-04 04:58:00,19.6,14.7,30.26,SSW,203,4.7,6.9,81,0.00,,,0.00,WUHU216HW,2013-01-04 10:58:00,
2013-01-04 05:03:00,19.6,14.7,30.26,SW,225,3.4,6.5,81,0.00,,,0.00,WUHU216HW,2013-01-04 11:03:00,
2013-01-04 05:08:00,19.8,14.9,30.27,SSW,203,2.9,7.8,81,0.00,,,0.00,WUHU216HW,2013-01-04 11:08:00,
2013-01-04 05:13:00,19.8,14.9,30.26,SW,225,3.1,7.8,81,0.00,,,0.00,WUHU216HW,2013-01-04 11:13:00,
2013-01-04 05:18:00,19.8,14.6,30.27,SW,225,3.6,5.1,80,0.00,,,0.00,WUHU216HW,2013-01-04 11:18:00,
2013-01-04 05:23:00,19.8,14.6,30.27,WSW,248,1.8,4.7,80,0.00,,,0.00,WUHU216HW,2013-01-04 11:23:00,
2013-01-04 05:28:00,19.8,14.6,30.27,West,270,0.4,4.7,80,0.00,,,0.00,WUHU216HW,2013-01-04 11:28:00,
2013-01-04 05:33:00,19.8,14.6,30.27,WSW,248,0.9,3.4,80,0.00,,,0.00,WUHU216HW,2013-01-04 11:33:00,
2013-01-04 05:38:00,19.4,14.2,30.27,WSW,248,0.4,3.4,80,0.00,,,0.00,WUHU216HW,2013-01-04 11:38:00,
2013-01-04 05:43:00,19.3,14.0,30.27,SSW,203,1.8,1.8,80,0.00,,,0.00,WUHU216HW,2013-01-04 11:43:00,
2013-01-04 05:48:00,19.1,13.9,30.27,SW,225,1.3,2.5,80,0.00,,,0.00,WUHU216HW,2013-01-04 11:48:00,
2013-01-04 05:53:00,18.9,13.7,30.27,SSW,203,0.0,2.5,80,0.00,,,0.00,WUHU216HW,2013-01-04 11:53:00,
2013-01-04 05:58:00,18.9,13.7,30.27,WSW,248,0.4,2.5,80,0.00,,,0.00,WUHU216HW,2013-01-04 11:58:00,
2013-01-04 06:03:00,18.7,13.5,30.28,SW,225,0.9,1.8,80,0.00,,,0.00,WUHU216HW,2013-01-04 12:03:00,
2013-01-04 06:08:00,18.7,13.5,30.28,SW,225,0.9,2.5,80,0.00,,,0.00,WUHU216HW,2013-01-04 12:08:00,
2013-01-04 06:13:00,18.7,13.5,30.28,SW,225,2.5,2.5,80,0.00,,,0.00,WUHU216HW,2013-01-04 12:13:00,
2013-01-04 06:18:00,18.7,13.5,30.28,WNW,293,0.4,2.5,80,0.00,,,0.00,WUHU216HW,2013-01-04 12:18:00,
2013-01-04 06:23:00,18.7,13.5,30.27,WSW,248,1.1,2.5,80,0.00,,,0.00,WUHU216HW,2013-01-04 12:23:00,
2013-01-04 06:28:00,18.5,13.3,30.28,SW,225,1.1,2.0,80,0.00,,,0.00,WUHU216HW,2013-01-04 12:28:00,
2013-01-04 06:33:00,18.5,13.3,30.28,WSW,248,0.4,1.8,80,0.00,,,0.00,WUHU216HW,2013-01-04 12:33:00,
2013-01-04 06:38:00,18.4,13.1,30.28,WSW,248,0.9,1.3,80,0.00,,,0.00,WUHU216HW,2013-01-04 12:38:00,
2013-01-04 06:43:00,18.2,12.7,30.28,WSW,248,0.9,2.5,79,0.00,,,0.00,WUHU216HW,2013-01-04 12:43:00,
2013-01-04 06:48:00,18.2,12.7,30.28,West,270,1.1,5.6,79,0.00,,,0.00,WUHU216HW,2013-01-04 12:48:00,
2013-01-04 06:53:00,18.4,13.1,30.29,NW,315,0.2,5.6,80,0.00,,,0.00,WUHU216HW,2013-01-04 12:53:00,
2013-01-04 06:58:00,18.4,13.1,30.29,SW,225,0.0,1.6,80,0.00,,,0.00,WUHU216HW,2013-01-04 12:58:00,
2013-01-04 07:03:00,18.4,13.1,30.29,SW,225,0.4,1.3,80,0.00,,,0.00,WUHU216HW,2013-01-04 13:03:00,
2013-01-04 07:08:00,18.4,13.1,30.29,WSW,248,1.6,1.6,80,0.00,,,0.00,WUHU216HW,2013-01-04 13:08:00,
2013-01-04 07:13:00,18.4,13.1,30.29,WSW,248,0.9,1.6,80,0.00,,,0.00,WUHU216HW,2013-01-04 13:13:00,
2013-01-04 07:18:00,18.4,13.4,30.29,SSW,203,1.6,1.6,81,0.00,,,0.00,WUHU216HW,2013-01-04 13:18:00,
2013-01-04 07:23:00,18.4,13.4,30.29,SW,225,1.1,3.1,81,0.00,,,0.00,WUHU216HW,2013-01-04 13:23:00,
2013-01-04 07:28:00,18.4,13.4,30.29,SW,225,3.1,3.1,81,0.00,,,0.00,WUHU216HW,2013-01-04 13:28:00,
2013-01-04 07:33:00,18.4,13.4,30.29,SW,225,1.3,3.4,81,0.00,,,0.00,WUHU216HW,2013-01-04 13:33:00,
2013-01-04 07:38:00,18.4,13.4,30.29,WSW,248,1.1,3.4,81,0.00,,,0.00,WUHU216HW,2013-01-04 13:38:00,
2013-01-04 07:43:00,18.4,13.4,30.29,SSW,203,1.1,2.2,81,0.00,,,0.00,WUHU216HW,2013-01-04 13:43:00,
2013-01-04 07:48:00,18.4,13.4,30.29,West,270,1.3,2.5,81,0.00,,,0.00,WUHU216HW,2013-01-04 13:48:00,
2013-01-04 07:53:00,18.4,13.4,30.29,WSW,248,1.1,2.5,81,0.00,,,0.00,WUHU216HW,2013-01-04 13:53:00,
2013-01-04 07:58:00,18.4,13.4,30.29,West,270,1.8,2.5,81,0.00,,,0.00,WUHU216HW,2013-01-04 13:58:00,
2013-01-04 08:03:00,18.4,13.4,30.29,WSW,248,1.6,2.5,81,0.00,,,0.00,WUHU216HW,2013-01-04 14:03:00,
2013-01-04 08:08:00,18.4,13.4,30.29,West,270,2.2,2.9,81,0.00,,,0.00,WUHU216HW,2013-01-04 14:08:00,
2013-01-04 08:13:00,18.4,13.4,30.30,WSW,248,0.4,2.9,81,0.00,,,0.00,WUHU216HW,2013-01-04 14:13:00,
2013-01-04 08:18:00,18.5,13.6,30.30,SW,225,1.1,2.7,81,0.00,,,0.00,WUHU216HW,2013-01-04 14:18:00,
2013-01-04 08:23:00,18.5,13.6,30.30,SW,225,1.1,2.5,81,0.00,,,0.00,WUHU216HW,2013-01-04 14:23:00,
2013-01-04 08:28:00,18.7,13.8,30.29,WSW,248,3.4,4.5,81,0.00,,,0.00,WUHU216HW,2013-01-04 14:28:00,
2013-01-04 08:33:00,19.1,14.1,30.29,West,270,0.9,5.4,81,0.00,,,0.00,WUHU216HW,2013-01-04 14:33:00,
2013-01-04 08:38:00,19.4,14.5,30.29,WSW,248,1.8,5.4,81,0.00,,,0.00,WUHU216HW,2013-01-04 14:38:00,
2013-01-04 08:43:00,19.8,14.6,30.29,West,270,2.9,4.7,80,0.00,,,0.00,WUHU216HW,2013-01-04 14:43:00,
2013-01-04 08:48:00,19.8,14.6,30.30,West,270,2.2,3.6,80,0.00,,,0.00,WUHU216HW,2013-01-04 14:48:00,
2013-01-04 08:53:00,20.0,14.8,30.30,WSW,248,0.9,3.1,80,0.00,,,0.00,WUHU216HW,2013-01-04 14:53:00,
2013-01-04 08:58:00,20.0,14.8,30.30,SW,225,2.2,3.4,80,0.00,,,0.00,WUHU216HW,2013-01-04 14:58:00,
2013-01-04 09:03:00,20.2,14.7,30.31,WSW,248,2.0,4.9,79,0.00,,,0.00,WUHU216HW,2013-01-04 15:03:00,
2013-01-04 09:08:00,20.5,15.0,30.31,WSW,248,2.2,4.9,79,0.00,,,0.00,WUHU216HW,2013-01-04 15:08:00,
2013-01-04 09:13:00,20.7,15.2,30.31,West,270,3.8,4.7,79,0.00,,,0.00,WUHU216HW,2013-01-04 15:13:00,
2013-01-04 09:18:00,21.1,15.6,30.31,WSW,248,1.1,4.7,79,0.00,,,0.00,WUHU216HW,2013-01-04 15:18:00,
2013-01-04 09:23:00,21.2,15.4,30.31,WSW,248,0.9,5.4,78,0.00,,,0.00,WUHU216HW,2013-01-04 15:23:00,
2013-01-04 09:28:00,21.6,15.8,30.31,West,270,3.1,5.4,78,0.00,,,0.00,WUHU216HW,2013-01-04 15:28:00,
2013-01-04 09:33:00,21.8,15.9,30.32,SSW,203,4.9,6.3,78,0.00,,,0.00,WUHU216HW,2013-01-04 15:33:00,
2013-01-04 09:38:00,22.0,16.1,30.32,SW,225,3.4,6.3,78,0.00,,,0.00,WUHU216HW,2013-01-04 15:38:00,
2013-01-04 09:43:00,22.3,16.2,30.32,SW,225,2.5,5.6,77,0.00,,,0.00,WUHU216HW,2013-01-04 15:43:00,
2013-01-04 09:48:00,22.5,16.4,30.32,West,270,3.1,5.6,77,0.00,,,0.00,WUHU216HW,2013-01-04 15:48:00,
2013-01-04 09:53:00,22.7,16.6,30.32,WNW,293,4.7,6.7,77,0.00,,,0.00,WUHU216HW,2013-01-04 15:53:00,
2013-01-04 09:58:00,23.0,16.9,30.33,WSW,248,2.7,6.7,77,0.00,,,0.00,WUHU216HW,2013-01-04 15:58:00,
2013-01-04 10:03:00,23.4,17.3,30.33,SSW,203,3.6,6.3,77,0.00,,,0.00,WUHU216HW,2013-01-04 16:03:00,
2013-01-04 10:08:00,23.6,17.5,30.33,NW,315,4.7,6.3,77,0.00,,,0.00,WUHU216HW,2013-01-04 16:08:00,
2013-01-04 10:13:00,23.8,17.7,30.33,West,270,3.6,6.3,77,0.00,,,0.00,WUHU216HW,2013-01-04 16:13:00,
2013-01-04 10:18:00,24.1,17.9,30.33,West,270,4.3,6.3,77,0.00,,,0.00,WUHU216HW,2013-01-04 16:18:00,
2013-01-04 10:23:00,24.3,17.8,30.33,West,270,4.7,6.0,76,0.00,,,0.00,WUHU216HW,2013-01-04 16:23:00,
2013-01-04 10:28:00,24.5,18.0,30.34,WSW,248,5.6,6.5,76,0.00,,,0.00,WUHU216HW,2013-01-04 16:28:00,
2013-01-04 10:33:00,24.7,17.8,30.34,WSW,248,4.0,6.5,75,0.00,,,0.00,WUHU216HW,2013-01-04 16:33:00,
2013-01-04 10:38:00,24.8,18.0,30.34,West,270,4.0,6.5,75,0.00,,,0.00,WUHU216HW,2013-01-04 16:38:00,
2013-01-04 10:43:00,25.0,18.2,30.34,SSW,203,6.0,6.5,75,0.00,,,0.00,WUHU216HW,2013-01-04 16:43:00,
2013-01-04 10:48:00,25.2,18.0,30.34,SW,225,3.6,6.0,74,0.00,,,0.00,WUHU216HW,2013-01-04 16:48:00,
2013-01-04 10:53:00,25.4,18.2,30.34,West,270,5.4,6.0,74,0.00,,,0.00,WUHU216HW,2013-01-04 16:53:00,
2013-01-04 10:58:00,25.6,18.4,30.34,South,180,3.6,6.7,74,0.00,,,0.00,WUHU216HW,2013-01-04 16:58:00,
2013-01-04 11:03:00,25.7,18.3,30.34,West,270,2.7,6.7,73,0.00,,,0.00,WUHU216HW,2013-01-04 17:03:00,
2013-01-04 11:08:00,25.7,18.3,30.34,WNW,293,4.0,7.2,73,0.00,,,0.00,WUHU216HW,2013-01-04 17:08:00,
2013-01-04 11:13:00,26.1,18.5,30.34,WSW,248,4.0,7.2,73,0.00,,,0.00,WUHU216HW,2013-01-04 17:13:00,
2013-01-04 11:18:00,26.3,18.5,30.34,WSW,248,4.7,5.6,72,0.00,,,0.00,WUHU216HW,2013-01-04 17:18:00,
2013-01-04 11:23:00,26.3,18.5,30.34,SSW,203,4.9,5.6,72,0.00,,,0.00,WUHU216HW,2013-01-04 17:23:00,
2013-01-04 11:28:00,26.5,18.6,30.34,WSW,248,5.1,6.9,72,0.00,,,0.00,WUHU216HW,2013-01-04 17:28:00,
2013-01-04 11:33:00,26.6,18.8,30.34,WSW,248,6.3,6.9,72,0.00,,,0.00,WUHU216HW,2013-01-04 17:33:00,
2013-01-04 11:38:00,26.6,18.8,30.34,WSW,248,6.3,6.3,72,0.00,,,0.00,WUHU216HW,2013-01-04 17:38:00,
2013-01-04 11:43:00,26.8,19.0,30.34,WSW,248,2.2,7.6,72,0.00,,,0.00,WUHU216HW,2013-01-04 17:43:00,
2013-01-04 11:48:00,27.0,19.2,30.34,WSW,248,6.3,7.6,72,0.00,,,0.00,WUHU216HW,2013-01-04 17:48:00,
2013-01-04 11:53:00,27.0,18.8,30.34,WSW,248,7.4,7.4,71,0.00,,,0.00,WUHU216HW,2013-01-04 17:53:00,
2013-01-04 11:58:00,27.2,19.0,30.34,WSW,248,1.6,7.4,71,0.00,,,0.00,WUHU216HW,2013-01-04 17:58:00,
2013-01-04 12:03:00,27.2,19.0,30.34,WSW,248,3.6,8.1,71,0.00,,,0.00,WUHU216HW,2013-01-04 18:03:00,
2013-01-04 12:08:00,27.4,18.9,30.34,WSW,248,3.4,8.1,70,0.00,,,0.00,WUHU216HW,2013-01-04 18:08:00,
2013-01-04 12:13:00,27.5,19.4,30.34,SSW,203,1.8,6.9,71,0.00,,,0.00,WUHU216HW,2013-01-04 18:13:00,
2013-01-04 12:18:00,27.7,19.5,30.34,West,270,4.5,6.0,71,0.00,,,0.00,WUHU216HW,2013-01-04 18:18:00,
2013-01-04 12:23:00,27.7,19.3,30.33,WSW,248,4.7,7.6,70,0.00,,,0.00,WUHU216HW,2013-01-04 18:23:00,
2013-01-04 12:28:00,27.7,19.3,30.33,NNW,338,1.8,7.6,70,0.00,,,0.00,WUHU216HW,2013-01-04 18:28:00,
2013-01-04 12:33:00,27.9,18.7,30.33,WNW,293,5.1,7.8,68,0.00,,,0.00,WUHU216HW,2013-01-04 18:33:00,
2013-01-04 12:38:00,27.9,18.7,30.33,West,270,3.4,7.8,68,0.00,,,0.00,WUHU216HW,2013-01-04 18:38:00,
2013-01-04 12:43:00,27.9,18.0,30.33,NW,315,4.7,6.9,66,0.00,,,0.00,WUHU216HW,2013-01-04 18:43:00,
2013-01-04 12:48:00,28.1,18.2,30.33,West,270,6.0,6.9,66,0.00,,,0.00,WUHU216HW,2013-01-04 18:48:00,
2013-01-04 12:53:00,28.1,18.2,30.33,WNW,293,3.4,6.9,66,0.00,,,0.00,WUHU216HW,2013-01-04 18:53:00,
2013-01-04 12:58:00,28.1,18.5,30.33,West,270,5.4,6.9,67,0.00,,,0.00,WUHU216HW,2013-01-04 18:58:00,
2013-01-04 13:03:00,28.4,18.9,30.33,West,270,5.8,6.5,67,0.00,,,0.00,WUHU216HW,2013-01-04 19:03:00,
2013-01-04 13:08:00,28.4,18.9,30.33,WSW,248,5.6,6.5,67,0.00,,,0.00,WUHU216HW,2013-01-04 19:08:00,
2013-01-04 13:13:00,28.4,18.9,30.32,WNW,293,3.6,5.8,67,0.00,,,0.00,WUHU216HW,2013-01-04 19:13:00,
2013-01-04 13:18:00,28.4,18.9,30.32,WSW,248,2.0,6.5,67,0.00,,,0.00,WUHU216HW,2013-01-04 19:18:00,
2013-01-04 13:23:00,28.6,19.5,30.32,West,270,2.9,6.5,68,0.00,,,0.00,WUHU216HW,2013-01-04 19:23:00,
2013-01-04 13:28:00,28.6,19.1,30.32,West,270,1.8,5.4,67,0.00,,,0.00,WUHU216HW,2013-01-04 19:28:00,
2013-01-04 13:33:00,28.8,19.3,30.32,WSW,248,2.9,6.3,67,0.00,,,0.00,WUHU216HW,2013-01-04 19:33:00,
2013-01-04 13:38:00,28.6,18.7,30.32,WSW,248,3.4,7.6,66,0.00,,,0.00,WUHU216HW,2013-01-04 19:38:00,
2013-01-04 13:43:00,28.8,19.3,30.32,WSW,248,4.5,7.6,67,0.00,,,0.00,WUHU216HW,2013-01-04 19:43:00,
2013-01-04 13:48:00,28.6,19.1,30.32,West,270,5.4,6.3,67,0.00,,,0.00,WUHU216HW,2013-01-04 19:48:00,
2013-01-04 13:53:00,28.8,19.3,30.32,SW,225,1.1,6.9,67,0.00,,,0.00,WUHU216HW,2013-01-04 19:53:00,
2013-01-04 13:58:00,29.0,19.4,30.33,WNW,293,1.6,6.9,67,0.00,,,0.00,WUHU216HW,2013-01-04 19:58:00,
2013-01-04 14:03:00,29.2,19.2,30.32,NW,315,2.0,5.1,66,0.00,,,0.00,WUHU216HW,2013-01-04 20:03:00,
2013-01-04 14:08:00,29.2,19.2,30.32,West,270,4.5,5.1,66,0.00,,,0.00,WUHU216HW,2013-01-04 20:08:00,
2013-01-04 14:13:00,29.5,19.5,30.32,WSW,248,3.1,4.7,66,0.00,,,0.00,WUHU216HW,2013-01-04 20:13:00,
2013-01-04 14:18:00,29.5,19.5,30.32,West,270,2.9,5.6,66,0.00,,,0.00,WUHU216HW,2013-01-04 20:18:00,
2013-01-04 14:23:00,29.5,19.5,30.32,SSW,203,1.3,5.6,66,0.00,,,0.00,WUHU216HW,2013-01-04 20:23:00,
2013-01-04 14:28:00,29.5,19.9,30.33,West,270,4.0,4.0,67,0.00,,,0.00,WUHU216HW,2013-01-04 20:28:00,
2013-01-04 14:33:00,29.7,20.1,30.33,WSW,248,1.8,4.0,67,0.00,,,0.00,WUHU216HW,2013-01-04 20:33:00,
2013-01-04 14:38:00,29.7,20.1,30.33,West,270,2.7,5.6,67,0.00,,,0.00,WUHU216HW,2013-01-04 20:38:00,
2013-01-04 14:43:00,29.9,20.2,30.33,NW,315,4.7,6.5,67,0.00,,,0.00,WUHU216HW,2013-01-04 20:43:00,
2013-01-04 14:48:00,29.7,20.1,30.33,WSW,248,2.2,6.5,67,0.00,,,0.00,WUHU216HW,2013-01-04 20:48:00,
2013-01-04 14:53:00,29.7,20.1,30.33,West,270,3.8,5.6,67,0.00,,,0.00,WUHU216HW,2013-01-04 20:53:00,
2013-01-04 14:58:00,29.7,20.1,30.33,West,270,4.0,6.0,67,0.00,,,0.00,WUHU216HW,2013-01-04 20:58:00,
2013-01-04 15:03:00,29.3,19.4,30.33,SW,225,2.2,6.0,66,0.00,,,0.00,WUHU216HW,2013-01-04 21:03:00,
2013-01-04 15:08:00,29.3,19.4,30.33,SW,225,1.3,5.6,66,0.00,,,0.00,WUHU216HW,2013-01-04 21:08:00,
2013-01-04 15:13:00,29.3,19.7,30.34,WNW,293,2.0,5.6,67,0.00,,,0.00,WUHU216HW,2013-01-04 21:13:00,
2013-01-04 15:18:00,29.2,19.5,30.34,NNW,338,1.8,4.9,67,0.00,,,0.00,WUHU216HW,2013-01-04 21:18:00,
2013-01-04 15:23:00,29.2,19.5,30.34,WSW,248,4.7,5.4,67,0.00,,,0.00,WUHU216HW,2013-01-04 21:23:00,
2013-01-04 15:28:00,29.2,19.5,30.34,West,270,3.6,5.4,67,0.00,,,0.00,WUHU216HW,2013-01-04 21:28:00,
2013-01-04 15:33:00,29.2,19.5,30.34,West,270,2.7,4.7,67,0.00,,,0.00,WUHU216HW,2013-01-04 21:33:00,
2013-01-04 15:38:00,29.2,19.5,30.34,WSW,248,2.2,4.7,67,0.00,,,0.00,WUHU216HW,2013-01-04 21:38:00,
2013-01-04 15:43:00,29.2,19.9,30.34,WSW,248,3.4,4.3,68,0.00,,,0.00,WUHU216HW,2013-01-04 21:43:00,
2013-01-04 15:48:00,29.0,19.7,30.35,West,270,3.1,4.3,68,0.00,,,0.00,WUHU216HW,2013-01-04 21:48:00,
2013-01-04 15:53:00,29.0,19.7,30.35,West,270,2.0,4.0,68,0.00,,,0.00,WUHU216HW,2013-01-04 21:53:00,
2013-01-04 15:58:00,29.0,19.7,30.35,SSW,203,3.4,4.0,68,0.00,,,0.00,WUHU216HW,2013-01-04 21:58:00,
2013-01-04 16:03:00,28.8,19.6,30.35,WSW,248,2.5,5.1,68,0.00,,,0.00,WUHU216HW,2013-01-04 22:03:00,
2013-01-04 16:08:00,28.6,19.5,30.35,WSW,248,1.8,5.1,68,0.00,,,0.00,WUHU216HW,2013-01-04 22:08:00,
2013-01-04 16:13:00,28.4,19.3,30.35,SW,225,1.8,4.0,68,0.00,,,0.00,WUHU216HW,2013-01-04 22:13:00,
2013-01-04 16:18:00,28.4,19.3,30.35,SW,225,3.4,4.7,68,0.00,,,0.00,WUHU216HW,2013-01-04 22:18:00,
2013-01-04 16:23:00,28.4,19.6,30.35,SW,225,1.1,6.3,69,0.00,,,0.00,WUHU216HW,2013-01-04 22:23:00,
2013-01-04 16:28:00,28.3,19.4,30.35,WSW,248,0.4,6.3,69,0.00,,,0.00,WUHU216HW,2013-01-04 22:28:00,
2013-01-04 16:33:00,28.1,19.3,30.35,West,270,2.0,3.6,69,0.00,,,0.00,WUHU216HW,2013-01-04 22:33:00,
2013-01-04 16:38:00,27.9,19.1,30.35,West,270,0.4,3.6,69,0.00,,,0.00,WUHU216HW,2013-01-04 22:38:00,
2013-01-04 16:43:00,27.7,18.9,30.35,WSW,248,0.0,2.2,69,0.00,,,0.00,WUHU216HW,2013-01-04 22:43:00,
2013-01-04 16:48:00,27.7,18.9,30.35,SW,225,1.1,1.8,69,0.00,,,0.00,WUHU216HW,2013-01-04 22:48:00,
2013-01-04 16:53:00,27.5,18.7,30.35,WSW,248,0.2,1.8,69,0.00,,,0.00,WUHU216HW,2013-01-04 22:53:00,
2013-01-04 16:58:00,27.4,18.5,30.34,WSW,248,0.4,1.8,69,0.00,,,0.00,WUHU216HW,2013-01-04 22:58:00,
2013-01-04 17:03:00,27.2,18.4,30.35,SW,225,1.1,1.6,69,0.00,,,0.00,WUHU216HW,2013-01-04 23:03:00,
2013-01-04 17:08:00,27.0,18.5,30.35,SW,225,0.7,1.6,70,0.00,,,0.00,WUHU216HW,2013-01-04 23:08:00,
2013-01-04 17:13:00,26.8,18.4,30.35,SSW,203,1.1,1.8,70,0.00,,,0.00,WUHU216HW,2013-01-04 23:13:00,
2013-01-04 17:18:00,26.6,18.2,30.36,SSW,203,1.8,2.0,70,0.00,,,0.00,WUHU216HW,2013-01-04 23:18:00,
2013-01-04 17:23:00,26.3,17.8,30.36,SSW,203,1.3,2.9,70,0.00,,,0.00,WUHU216HW,2013-01-04 23:23:00,
2013-01-04 17:28:00,26.3,17.8,30.35,SSW,203,1.1,2.9,70,0.00,,,0.00,WUHU216HW,2013-01-04 23:28:00,
2013-01-04 17:33:00,26.1,17.6,30.35,SW,225,1.6,2.7,70,0.00,,,0.00,WUHU216HW,2013-01-04 23:33:00,
2013-01-04 17:38:00,25.9,17.5,30.35,SSW,203,0.2,2.7,70,0.00,,,0.00,WUHU216HW,2013-01-04 23:38:00,
2013-01-04 17:43:00,25.7,17.3,30.35,SSW,203,0.9,2.0,70,0.00,,,0.00,WUHU216HW,2013-01-04 23:43:00,
2013-01-04 17:48:00,25.6,17.1,30.35,SW,225,0.7,2.0,70,0.00,,,0.00,WUHU216HW,2013-01-04 23:48:00,
2013-01-04 17:53:00,25.4,16.9,30.35,SSW,203,0.2,1.8,70,0.00,,,0.00,WUHU216HW,2013-01-04 23:53:00,
2013-01-04 17:58:00,25.0,16.6,30.35,SSW,203,0.0,1.6,70,0.00,,,0.00,WUHU216HW,2013-01-04 23:58:00,
2013-01-04 18:03:00,24.8,16.4,30.35,SSW,203,0.2,0.7,70,0.00,,,0.00,WUHU216HW,2013-01-05 00:03:00,
2013-01-04 18:08:00,24.7,16.2,30.36,SSE,158,0.2,0.4,70,0.00,,,0.00,WUHU216HW,2013-01-05 00:08:00,
2013-01-04 18:13:00,24.3,15.9,30.35,South,180,0.0,0.4,70,0.00,,,0.00,WUHU216HW,2013-01-05 00:13:00,
2013-01-04 18:18:00,24.1,15.8,30.35,SSE,158,0.0,0.4,70,0.00,,,0.00,WUHU216HW,2013-01-05 00:18:00,
2013-01-04 18:23:00,23.9,15.6,30.35,SSE,158,0.0,0.2,70,0.00,,,0.00,WUHU216HW,2013-01-05 00:23:00,
2013-01-04 18:28:00,23.6,15.2,30.35,SSE,158,0.0,0.0,70,0.00,,,0.00,WUHU216HW,2013-01-05 00:28:00,
2013-01-04 18:33:00,23.4,15.4,30.35,SSE,158,0.0,0.0,71,0.00,,,0.00,WUHU216HW,2013-01-05 00:33:00,
2013-01-04 18:38:00,23.2,15.2,30.36,SSE,158,0.0,0.7,71,0.00,,,0.00,WUHU216HW,2013-01-05 00:38:00,
2013-01-04 18:43:00,23.0,15.0,30.35,SSE,158,0.0,0.7,71,0.00,,,0.00,WUHU216HW,2013-01-05 00:43:00,
2013-01-04 18:48:00,22.9,15.2,30.35,SSE,158,0.0,0.0,72,0.00,,,0.00,WUHU216HW,2013-01-05 00:48:00,
2013-01-04 18:53:00,22.7,15.0,30.35,SSE,158,0.0,0.0,72,0.00,,,0.00,WUHU216HW,2013-01-05 00:53:00,
2013-01-04 18:58:00,22.5,14.9,30.35,SSE,158,0.2,0.2,72,0.00,,,0.00,WUHU216HW,2013-01-05 00:58:00,
2013-01-04 19:03:00,22.0,14.3,30.35,SE,135,0.0,0.4,72,0.00,,,0.00,WUHU216HW,2013-01-05 01:03:00,
2013-01-04 19:08:00,21.8,14.1,30.36,SE,135,0.0,0.4,72,0.00,,,0.00,WUHU216HW,2013-01-05 01:08:00,
2013-01-04 19:13:00,21.6,14.0,30.35,SE,135,0.0,0.2,72,0.00,,,0.00,WUHU216HW,2013-01-05 01:13:00,
2013-01-04 19:18:00,21.2,13.6,30.35,South,180,0.0,0.0,72,0.00,,,0.00,WUHU216HW,2013-01-05 01:18:00,
2013-01-04 19:23:00,21.1,13.4,30.35,South,180,0.0,0.0,72,0.00,,,0.00,WUHU216HW,2013-01-05 01:23:00,
2013-01-04 19:28:00,20.9,13.2,30.36,South,180,0.0,0.0,72,0.00,,,0.00,WUHU216HW,2013-01-05 01:28:00,
2013-01-04 19:33:00,20.5,13.1,30.36,South,180,0.0,0.0,73,0.00,,,0.00,WUHU216HW,2013-01-05 01:33:00,
2013-01-04 19:38:00,20.2,12.8,30.36,South,180,0.0,0.2,73,0.00,,,0.00,WUHU216HW,2013-01-05 01:38:00,
2013-01-04 19:43:00,19.8,12.4,30.35,South,180,0.0,0.2,73,0.00,,,0.00,WUHU216HW,2013-01-05 01:43:00,
2013-01-04 19:48:00,19.6,12.6,30.36,South,180,0.7,0.7,74,0.00,,,0.00,WUHU216HW,2013-01-05 01:48:00,
2013-01-04 19:53:00,19.4,12.4,30.36,SSE,158,0.0,0.7,74,0.00,,,0.00,WUHU216HW,2013-01-05 01:53:00,
2013-01-04 19:58:00,19.3,12.3,30.36,SSE,158,0.0,0.7,74,0.00,,,0.00,WUHU216HW,2013-01-05 01:58:00,
2013-01-04 20:03:00,19.1,12.1,30.36,SSE,158,0.0,0.2,74,0.00,,,0.00,WUHU216HW,2013-01-05 02:03:00,
2013-01-04 20:08:00,18.9,12.2,30.36,SSE,158,0.0,0.0,75,0.00,,,0.00,WUHU216HW,2013-01-05 02:08:00,
2013-01-04 20:13:00,18.7,12.0,30.36,SSE,158,0.0,0.0,75,0.00,,,0.00,WUHU216HW,2013-01-05 02:13:00,
2013-01-04 20:18:00,18.4,11.3,30.36,SSE,158,0.0,0.4,74,0.00,,,0.00,WUHU216HW,2013-01-05 02:18:00,
2013-01-04 20:23:00,18.4,11.3,30.36,SSE,158,0.0,0.4,74,0.00,,,0.00,WUHU216HW,2013-01-05 02:23:00,
2013-01-04 20:28:00,18.2,11.2,30.36,SSE,158,0.0,0.4,74,0.00,,,0.00,WUHU216HW,2013-01-05 02:28:00,
2013-01-04 20:33:00,18.0,11.1,30.36,SSE,158,0.0,0.2,74,0.00,,,0.00,WUHU216HW,2013-01-05 02:33:00,
2013-01-04 20:38:00,17.8,10.9,30.36,SSE,158,0.0,0.0,74,0.00,,,0.00,WUHU216HW,2013-01-05 02:38:00,
2013-01-04 20:43:00,17.8,10.9,30.36,SSE,158,0.0,0.2,74,0.00,,,0.00,WUHU216HW,2013-01-05 02:43:00,
2013-01-04 20:48:00,17.6,10.7,30.36,SSE,158,0.0,0.2,74,0.00,,,0.00,WUHU216HW,2013-01-05 02:48:00,
2013-01-04 20:53:00,17.3,10.6,30.36,SSE,158,0.0,0.0,75,0.00,,,0.00,WUHU216HW,2013-01-05 02:53:00,
2013-01-04 20:58:00,16.9,10.3,30.36,SSE,158,0.0,0.0,75,0.00,,,0.00,WUHU216HW,2013-01-05 02:58:00,
2013-01-04 21:03:00,16.9,10.3,30.36,SSE,158,0.0,0.0,75,0.00,,,0.00,WUHU216HW,2013-01-05 03:03:00,
2013-01-04 21:08:00,16.9,10.3,30.36,SSE,158,0.0,0.0,75,0.00,,,0.00,WUHU216HW,2013-01-05 03:08:00,
2013-01-04 21:13:00,16.9,10.6,30.36,SE,135,0.0,0.0,76,0.00,,,0.00,WUHU216HW,2013-01-05 03:13:00,
2013-01-04 21:18:00,16.9,10.6,30.36,SE,135,0.0,0.2,76,0.00,,,0.00,WUHU216HW,2013-01-05 03:18:00,
2013-01-04 21:23:00,16.7,10.5,30.36,SE,135,0.0,0.2,76,0.00,,,0.00,WUHU216HW,2013-01-05 03:23:00,
2013-01-04 21:28:00,16.2,9.9,30.35,SE,135,0.0,0.0,76,0.00,,,0.00,WUHU216HW,2013-01-05 03:28:00,
2013-01-04 21:33:00,15.8,9.5,30.35,SE,135,0.0,0.0,76,0.00,,,0.00,WUHU216HW,2013-01-05 03:33:00,
2013-01-04 21:38:00,15.3,9.1,30.34,SE,135,0.4,0.4,76,0.00,,,0.00,WUHU216HW,2013-01-05 03:38:00,
2013-01-04 21:43:00,14.9,8.7,30.34,SE,135,0.0,0.4,76,0.00,,,0.00,WUHU216HW,2013-01-05 03:43:00,
2013-01-04 21:48:00,14.8,8.6,30.34,SE,135,0.4,0.4,76,0.00,,,0.00,WUHU216HW,2013-01-05 03:48:00,
2013-01-04 21:53:00,14.9,9.0,30.34,ESE,113,0.4,0.7,77,0.00,,,0.00,WUHU216HW,2013-01-05 03:53:00,
2013-01-04 21:58:00,15.1,9.2,30.34,ESE,113,0.0,0.7,77,0.00,,,0.00,WUHU216HW,2013-01-05 03:58:00,
2013-01-04 22:03:00,14.9,9.0,30.34,ESE,113,0.0,0.7,77,0.00,,,0.00,WUHU216HW,2013-01-05 04:03:00,
2013-01-04 22:08:00,14.8,8.8,30.34,ESE,113,0.0,0.7,77,0.00,,,0.00,WUHU216HW,2013-01-05 04:08:00,
2013-01-04 22:13:00,14.6,8.6,30.34,East,90,0.0,0.9,77,0.00,,,0.00,WUHU216HW,2013-01-05 04:13:00,
2013-01-04 22:18:00,14.6,8.6,30.33,East,90,0.0,0.9,77,0.00,,,0.00,WUHU216HW,2013-01-05 04:18:00,
2013-01-04 22:23:00,14.6,8.6,30.33,East,90,0.0,0.2,77,0.00,,,0.00,WUHU216HW,2013-01-05 04:23:00,
2013-01-04 22:28:00,14.6,8.6,30.33,East,90,0.0,0.2,77,0.00,,,0.00,WUHU216HW,2013-01-05 04:28:00,
2013-01-04 22:33:00,14.4,8.5,30.33,East,90,0.0,0.2,77,0.00,,,0.00,WUHU216HW,2013-01-05 04:33:00,
2013-01-04 22:38:00,14.6,8.6,30.32,East,90,0.0,0.0,77,0.00,,,0.00,WUHU216HW,2013-01-05 04:38:00,
2013-01-04 22:43:00,14.4,8.5,30.32,East,90,0.0,0.2,77,0.00,,,0.00,WUHU216HW,2013-01-05 04:43:00,
2013-01-04 22:48:00,14.2,8.3,30.32,East,90,0.0,0.2,77,0.00,,,0.00,WUHU216HW,2013-01-05 04:48:00,
2013-01-04 22:53:00,14.0,8.1,30.32,East,90,0.0,0.0,77,0.00,,,0.00,WUHU216HW,2013-01-05 04:53:00,
2013-01-04 22:58:00,13.7,7.7,30.32,East,90,0.0,0.0,77,0.00,,,0.00,WUHU216HW,2013-01-05 04:58:00,
2013-01-04 23:00:00,13.5,7.6,30.32,East,90,0.0,0.0,77,0.00,,,0.00,WUHU216HW,2013-01-05 05:00:00,
2013-01-04 23:03:00,13.3,7.4,30.32,East,90,0.0,0.0,77,0.00,,,0.00,WUHU216HW,2013-01-05 05:03:00,
2013-01-04 23:08:00,13.1,7.6,30.33,East,90,0.0,0.0,78,0.00,,,0.00,WUHU216HW,2013-01-05 05:08:00,
2013-01-04 23:13:00,13.1,7.6,30.33,East,90,0.0,0.0,78,0.00,,,0.00,WUHU216HW,2013-01-05 05:13:00,
2013-01-04 23:18:00,13.1,7.6,30.33,East,90,0.0,0.0,78,0.00,,,0.00,WUHU216HW,2013-01-05 05:18:00,
2013-01-04 23:23:00,13.3,7.8,30.33,ESE,113,0.0,0.0,78,0.00,,,0.00,WUHU216HW,2013-01-05 05:23:00,
2013-01-04 23:28:00,13.3,7.8,30.32,ESE,113,0.0,0.0,78,0.00,,,0.00,WUHU216HW,2013-01-05 05:28:00,
2013-01-04 23:33:00,13.3,7.8,30.32,ESE,113,0.4,0.4,78,0.00,,,0.00,WUHU216HW,2013-01-05 05:33:00,
2013-01-04 23:38:00,12.8,7.2,30.32,ESE,113,0.0,0.4,78,0.00,,,0.00,WUHU216HW,2013-01-05 05:38:00,
2013-01-04 23:43:00,12.6,7.0,30.32,SSW,203,0.0,1.3,78,0.00,,,0.00,WUHU216HW,2013-01-05 05:43:00,
2013-01-04 23:48:00,12.6,7.3,30.32,SSW,203,0.0,1.3,79,0.00,,,0.00,WUHU216HW,2013-01-05 05:48:00,
2013-01-04 23:53:00,12.4,7.1,30.32,SSW,203,0.0,0.0,79,0.00,,,0.00,WUHU216HW,2013-01-05 05:53:00,
2013-01-04 23:58:00,12.2,6.9,30.32,SSW,203,0.0,0.0,79,0.00,,,0.00,WUHU216HW,2013-01-05 05:58:00,